createdAt,value
2023-03-31T00:00:33.437Z,90.75
2023-03-31T00:01:33.414Z,90.86
2023-03-31T00:02:33.546Z,90.14
2023-03-31T00:03:33.559Z,90.41
2023-03-31T00:04:33.441Z,90.86
2023-03-31T00:05:33.380Z,90.66
2023-03-31T00:06:33.419Z,90.25
2023-03-31T00:07:33.357Z,90.71
2023-03-31T00:08:33.351Z,90.61
2023-03-31T00:09:33.348Z,90.81
2023-03-31T00:10:33.313Z,90.25
2023-03-31T00:11:33.305Z,90.14
2023-03-31T00:12:33.298Z,90.31
2023-03-31T00:13:33.277Z,90.45
2023-03-31T00:14:33.292Z,90.25
2023-03-31T00:15:33.261Z,90.31
2023-03-31T00:16:33.302Z,90.25
2023-03-31T00:17:33.373Z,90.35
2023-03-31T00:18:33.244Z,89.59
2023-03-31T00:19:33.213Z,89.79
2023-03-31T00:20:33.202Z,89.73
2023-03-31T00:21:33.203Z,90.31
2023-03-31T00:22:33.216Z,90.41
2023-03-31T00:23:33.176Z,90.31
2023-03-31T00:24:33.296Z,90.45
2023-03-31T00:25:33.148Z,90.45
2023-03-31T00:26:33.158Z,90.14
2023-03-31T00:27:33.129Z,90.35
2023-03-31T00:28:33.121Z,90.35
2023-03-31T00:29:33.101Z,90.45
2023-03-31T00:30:33.117Z,90.25
2023-03-31T00:31:33.106Z,90.14
2023-03-31T00:32:33.135Z,90.20
2023-03-31T00:33:33.062Z,90.14
2023-03-31T00:34:33.061Z,90.51
2023-03-31T00:35:33.045Z,90.45
2023-03-31T00:36:33.058Z,90.20
2023-03-31T00:37:33.010Z,90.04
2023-03-31T00:38:33.033Z,90.00
2023-03-31T00:39:32.988Z,90.25
2023-03-31T00:40:32.988Z,90.14
2023-03-31T00:41:33.012Z,90.00
2023-03-31T00:42:32.968Z,90.20
2023-03-31T00:43:32.975Z,90.14
2023-03-31T00:44:32.941Z,90.25
2023-03-31T00:45:32.999Z,90.25
2023-03-31T00:46:32.917Z,90.41
2023-03-31T00:47:33.004Z,90.20
2023-03-31T00:48:32.915Z,89.79
2023-03-31T00:49:32.910Z,90.31
2023-03-31T00:50:32.879Z,90.41
2023-03-31T00:51:32.858Z,89.79
2023-03-31T00:52:32.848Z,89.69
2023-03-31T00:53:32.841Z,90.00
2023-03-31T00:54:32.889Z,89.59
2023-03-31T00:55:32.818Z,90.20
2023-03-31T00:56:32.807Z,90.20
2023-03-31T00:57:32.792Z,90.31
2023-03-31T00:58:32.815Z,90.31
2023-03-31T00:59:32.772Z,89.69
2023-03-31T01:00:32.799Z,89.39
2023-03-31T01:01:32.783Z,90.51
2023-03-31T01:02:32.807Z,90.31
2023-03-31T01:03:32.774Z,90.25
2023-03-31T01:04:32.724Z,90.41
2023-03-31T01:05:32.723Z,90.00
2023-03-31T01:06:32.711Z,90.00
2023-03-31T01:07:32.689Z,90.41
2023-03-31T01:08:32.676Z,90.61
2023-03-31T01:09:32.662Z,89.79
2023-03-31T01:10:32.670Z,89.49
2023-03-31T01:11:32.666Z,89.79
2023-03-31T01:12:32.647Z,90.25
2023-03-31T01:13:32.621Z,90.10
2023-03-31T01:14:32.619Z,90.10
2023-03-31T01:15:32.604Z,90.51
2023-03-31T01:16:32.641Z,89.69
2023-03-31T01:17:32.729Z,89.49
2023-03-31T01:18:32.652Z,90.20
2023-03-31T01:19:32.573Z,90.00
2023-03-31T01:20:32.547Z,90.20
2023-03-31T01:21:32.545Z,89.69
2023-03-31T01:22:32.567Z,90.10
2023-03-31T01:23:32.506Z,90.51
2023-03-31T01:24:32.512Z,90.31
2023-03-31T01:25:32.507Z,89.69
2023-03-31T01:26:32.501Z,89.39
2023-03-31T01:27:32.481Z,89.69
2023-03-31T01:28:32.459Z,89.59
2023-03-31T01:29:32.450Z,89.69
2023-03-31T01:30:32.442Z,89.39
2023-03-31T01:31:32.505Z,89.69
2023-03-31T01:32:32.457Z,89.59
2023-03-31T01:33:32.433Z,89.39
2023-03-31T01:34:32.394Z,89.90
2023-03-31T01:35:32.428Z,89.55
2023-03-31T01:36:32.381Z,89.59
2023-03-31T01:37:32.359Z,89.90
2023-03-31T01:38:32.362Z,89.69
2023-03-31T01:39:32.363Z,89.39
2023-03-31T01:40:32.336Z,89.90
2023-03-31T01:41:32.339Z,89.69
2023-03-31T01:42:32.331Z,89.59
2023-03-31T01:43:32.306Z,89.90
2023-03-31T01:44:32.289Z,89.14
2023-03-31T01:45:32.281Z,88.84
2023-03-31T01:46:32.283Z,88.93
2023-03-31T01:47:32.273Z,89.04
2023-03-31T01:48:32.248Z,88.73
2023-03-31T01:49:32.260Z,88.78
2023-03-31T01:50:32.218Z,88.84
2023-03-31T01:51:32.217Z,88.98
2023-03-31T01:52:32.231Z,88.78
2023-03-31T01:53:32.199Z,88.84
2023-03-31T01:54:32.181Z,88.22
2023-03-31T01:55:32.168Z,87.92
2023-03-31T01:56:32.154Z,87.76
2023-03-31T01:57:32.183Z,87.92
2023-03-31T01:58:32.148Z,88.12
2023-03-31T01:59:32.125Z,87.61
2023-03-31T02:00:32.125Z,87.71
2023-03-31T02:01:32.126Z,88.12
2023-03-31T02:02:32.180Z,88.32
2023-03-31T02:03:32.133Z,88.63
2023-03-31T02:04:32.061Z,88.12
2023-03-31T02:05:32.056Z,88.12
2023-03-31T02:06:32.063Z,87.92
2023-03-31T02:07:32.051Z,88.73
2023-03-31T02:08:32.041Z,88.22
2023-03-31T02:09:32.016Z,88.57
2023-03-31T02:10:32.002Z,88.12
2023-03-31T02:11:31.993Z,88.84
2023-03-31T02:12:32.002Z,89.18
2023-03-31T02:13:31.985Z,88.06
2023-03-31T02:14:31.973Z,88.26
2023-03-31T02:15:31.974Z,88.88
2023-03-31T02:16:32.054Z,88.88
2023-03-31T02:17:31.994Z,88.78
2023-03-31T02:18:31.927Z,88.84
2023-03-31T02:19:31.902Z,88.78
2023-03-31T02:20:31.888Z,88.78
2023-03-31T02:21:31.898Z,88.57
2023-03-31T02:22:31.917Z,88.67
2023-03-31T02:23:31.922Z,88.67
2023-03-31T02:24:31.867Z,88.57
2023-03-31T02:25:31.851Z,88.57
2023-03-31T02:26:31.845Z,88.47
2023-03-31T02:27:31.813Z,89.18
2023-03-31T02:28:31.797Z,89.08
2023-03-31T02:29:31.842Z,89.18
2023-03-31T02:30:31.815Z,88.67
2023-03-31T02:31:31.805Z,88.26
2023-03-31T02:32:31.780Z,89.08
2023-03-31T02:33:31.747Z,89.18
2023-03-31T02:34:31.732Z,89.18
2023-03-31T02:35:31.751Z,89.02
2023-03-31T02:36:31.731Z,89.08
2023-03-31T02:37:31.719Z,89.12
2023-03-31T02:38:31.690Z,89.18
2023-03-31T02:39:31.679Z,88.67
2023-03-31T02:40:31.678Z,88.41
2023-03-31T02:41:31.671Z,88.47
2023-03-31T02:42:31.660Z,89.08
2023-03-31T02:43:31.661Z,89.02
2023-03-31T02:44:31.655Z,89.08
2023-03-31T02:45:31.643Z,89.02
2023-03-31T02:46:31.683Z,90.04
2023-03-31T02:47:31.609Z,89.02
2023-03-31T02:48:31.619Z,88.92
2023-03-31T02:49:31.589Z,89.02
2023-03-31T02:50:33.210Z,89.08
2023-03-31T02:51:31.553Z,88.41
2023-03-31T02:52:31.578Z,88.92
2023-03-31T02:53:31.531Z,89.23
2023-03-31T02:54:31.535Z,89.23
2023-03-31T02:55:31.540Z,89.23
2023-03-31T02:56:31.494Z,89.18
2023-03-31T02:57:31.486Z,89.32
2023-03-31T02:58:31.470Z,89.12
2023-03-31T02:59:31.479Z,88.92
2023-03-31T03:00:31.488Z,90.04
2023-03-31T03:01:31.503Z,89.23
2023-03-31T03:02:31.576Z,89.12
2023-03-31T03:03:31.472Z,89.23
2023-03-31T03:04:31.431Z,89.23
2023-03-31T03:05:31.400Z,89.02
2023-03-31T03:06:31.399Z,89.12
2023-03-31T03:07:31.399Z,88.65
2023-03-31T03:08:31.381Z,88.92
2023-03-31T03:09:31.372Z,89.12
2023-03-31T03:10:31.345Z,89.17
2023-03-31T03:11:31.350Z,88.92
2023-03-31T03:12:31.339Z,88.61
2023-03-31T03:13:31.319Z,89.12
2023-03-31T03:14:31.310Z,88.20
2023-03-31T03:15:31.309Z,88.82
2023-03-31T03:16:31.290Z,88.82
2023-03-31T03:17:31.290Z,88.10
2023-03-31T03:18:31.286Z,88.20
2023-03-31T03:19:31.262Z,88.10
2023-03-31T03:20:31.230Z,88.10
2023-03-31T03:21:31.235Z,87.70
2023-03-31T03:22:31.218Z,88.00
2023-03-31T03:23:31.205Z,88.00
2023-03-31T03:24:31.223Z,88.10
2023-03-31T03:25:31.191Z,88.00
2023-03-31T03:26:31.172Z,88.00
2023-03-31T03:27:31.176Z,87.90
2023-03-31T03:28:31.144Z,87.79
2023-03-31T03:29:31.141Z,88.00
2023-03-31T03:30:31.136Z,87.70
2023-03-31T03:31:31.133Z,88.00
2023-03-31T03:32:31.141Z,87.79
2023-03-31T03:33:31.094Z,87.90
2023-03-31T03:34:31.124Z,87.38
2023-03-31T03:35:31.106Z,87.18
2023-03-31T03:36:31.085Z,87.18
2023-03-31T03:37:31.047Z,87.08
2023-03-31T03:38:31.035Z,86.98
2023-03-31T03:39:31.045Z,87.08
2023-03-31T03:40:31.015Z,86.67
2023-03-31T03:41:31.023Z,86.88
2023-03-31T03:42:31.001Z,86.26
2023-03-31T03:43:30.988Z,86.47
2023-03-31T03:44:30.970Z,87.08
2023-03-31T03:45:30.982Z,87.18
2023-03-31T03:46:31.004Z,86.47
2023-03-31T03:47:30.975Z,86.67
2023-03-31T03:48:30.968Z,86.41
2023-03-31T03:49:30.923Z,85.96
2023-03-31T03:50:30.928Z,86.16
2023-03-31T03:51:30.924Z,85.65
2023-03-31T03:52:30.887Z,85.75
2023-03-31T03:53:30.888Z,85.75
2023-03-31T03:54:30.885Z,85.75
2023-03-31T03:55:30.864Z,85.69
2023-03-31T03:56:30.835Z,85.55
2023-03-31T03:57:30.899Z,84.83
2023-03-31T03:58:30.819Z,85.45
2023-03-31T03:59:30.809Z,85.45
2023-03-31T04:00:30.822Z,85.45
2023-03-31T04:01:30.782Z,84.88
2023-03-31T04:02:30.889Z,85.04
2023-03-31T04:03:30.829Z,84.88
2023-03-31T04:04:30.829Z,84.67
2023-03-31T04:05:30.830Z,84.67
2023-03-31T04:06:30.754Z,84.74
2023-03-31T04:07:30.738Z,84.74
2023-03-31T04:08:30.737Z,84.57
2023-03-31T04:09:30.694Z,84.74
2023-03-31T04:10:30.710Z,84.94
2023-03-31T04:11:30.687Z,84.33
2023-03-31T04:12:30.685Z,84.74
2023-03-31T04:13:30.689Z,84.74
2023-03-31T04:14:30.646Z,84.74
2023-03-31T04:15:30.653Z,84.42
2023-03-31T04:16:30.647Z,85.49
2023-03-31T04:17:30.661Z,84.98
2023-03-31T04:18:30.615Z,84.83
2023-03-31T04:19:30.599Z,84.57
2023-03-31T04:20:30.584Z,84.42
2023-03-31T04:21:30.559Z,84.67
2023-03-31T04:22:30.620Z,84.42
2023-03-31T04:23:30.546Z,85.55
2023-03-31T04:24:30.540Z,85.75
2023-03-31T04:25:30.576Z,86.10
2023-03-31T04:26:30.502Z,86.26
2023-03-31T04:27:30.512Z,86.91
2023-03-31T04:28:31.122Z,86.20
2023-03-31T04:29:30.483Z,87.02
2023-03-31T04:30:30.479Z,86.82
2023-03-31T04:31:30.545Z,86.71
2023-03-31T04:32:30.500Z,87.12
2023-03-31T04:33:30.432Z,86.82
2023-03-31T04:34:30.418Z,87.67
2023-03-31T04:35:30.434Z,87.53
2023-03-31T04:36:30.419Z,87.94
2023-03-31T04:37:30.390Z,88.24
2023-03-31T04:38:30.421Z,87.94
2023-03-31T04:39:30.369Z,88.14
2023-03-31T04:40:30.355Z,87.53
2023-03-31T04:41:30.344Z,88.08
2023-03-31T04:42:30.342Z,88.18
2023-03-31T04:43:30.333Z,88.90
2023-03-31T04:44:30.298Z,88.70
2023-03-31T04:45:30.359Z,89.00
2023-03-31T04:46:30.374Z,89.11
2023-03-31T04:47:30.343Z,88.79
2023-03-31T04:48:30.277Z,88.90
2023-03-31T04:49:30.268Z,88.90
2023-03-31T04:50:30.268Z,88.90
2023-03-31T04:51:30.233Z,88.08
2023-03-31T04:52:30.238Z,88.08
2023-03-31T04:53:30.215Z,88.39
2023-03-31T04:54:30.253Z,89.00
2023-03-31T04:55:30.199Z,89.00
2023-03-31T04:56:30.188Z,89.00
2023-03-31T04:57:30.264Z,89.20
2023-03-31T04:58:30.152Z,88.49
2023-03-31T04:59:30.169Z,88.59
2023-03-31T05:00:30.123Z,88.79
2023-03-31T05:01:30.159Z,88.70
2023-03-31T05:02:30.209Z,89.20
2023-03-31T05:03:30.322Z,89.00
2023-03-31T05:04:30.114Z,89.11
2023-03-31T05:05:30.088Z,89.00
2023-03-31T05:06:30.083Z,88.90
2023-03-31T05:07:30.075Z,88.18
2023-03-31T05:08:30.072Z,87.67
2023-03-31T05:09:30.032Z,87.43
2023-03-31T05:10:30.060Z,87.77
2023-03-31T05:11:30.050Z,88.18
2023-03-31T05:12:30.021Z,87.67
2023-03-31T05:13:30.012Z,87.47
2023-03-31T05:14:29.986Z,87.06
2023-03-31T05:15:29.993Z,87.16
2023-03-31T05:16:30.035Z,86.76
2023-03-31T05:17:29.968Z,87.02
2023-03-31T05:18:29.955Z,87.37
2023-03-31T05:19:29.945Z,86.14
2023-03-31T05:20:29.931Z,85.83
2023-03-31T05:21:29.937Z,85.69
2023-03-31T05:22:29.901Z,85.83
2023-03-31T05:23:29.909Z,85.83
2023-03-31T05:24:29.878Z,85.63
2023-03-31T05:25:29.886Z,85.49
2023-03-31T05:26:29.876Z,84.81
2023-03-31T05:27:29.858Z,84.77
2023-03-31T05:28:31.277Z,84.91
2023-03-31T05:29:29.865Z,83.75
2023-03-31T05:30:29.836Z,83.75
2023-03-31T05:31:29.844Z,83.75
2023-03-31T05:32:29.802Z,83.95
2023-03-31T05:33:29.783Z,83.95
2023-03-31T05:34:29.786Z,83.85
2023-03-31T05:35:29.761Z,83.14
2023-03-31T05:36:29.801Z,83.85
2023-03-31T05:37:29.753Z,83.95
2023-03-31T05:38:29.748Z,82.83
2023-03-31T05:39:29.717Z,83.44
2023-03-31T05:40:29.706Z,83.24
2023-03-31T05:41:29.702Z,83.95
2023-03-31T05:42:29.708Z,83.75
2023-03-31T05:43:29.703Z,83.85
2023-03-31T05:44:29.685Z,84.71
2023-03-31T05:45:29.665Z,85.63
2023-03-31T05:46:29.695Z,85.32
2023-03-31T05:47:29.733Z,86.04
2023-03-31T05:48:29.623Z,86.14
2023-03-31T05:49:29.639Z,86.85
2023-03-31T05:50:29.685Z,86.85
2023-03-31T05:51:29.624Z,87.26
2023-03-31T05:52:29.595Z,87.20
2023-03-31T05:53:29.556Z,86.90
2023-03-31T05:54:29.579Z,87.35
2023-03-31T05:55:30.442Z,87.35
2023-03-31T05:56:29.534Z,87.92
2023-03-31T05:57:29.586Z,87.51
2023-03-31T05:58:29.554Z,87.14
2023-03-31T05:59:29.521Z,86.94
2023-03-31T06:00:29.562Z,87.14
2023-03-31T06:01:29.596Z,87.10
2023-03-31T06:02:29.543Z,87.04
2023-03-31T06:03:29.475Z,86.83
2023-03-31T06:04:29.545Z,87.04
2023-03-31T06:05:29.459Z,86.83
2023-03-31T06:06:29.420Z,87.45
2023-03-31T06:07:29.445Z,87.24
2023-03-31T06:08:29.394Z,87.35
2023-03-31T06:09:29.389Z,86.83
2023-03-31T06:10:29.379Z,87.24
2023-03-31T06:11:29.378Z,87.14
2023-03-31T06:12:29.357Z,86.94
2023-03-31T06:13:29.356Z,87.35
2023-03-31T06:14:29.355Z,87.45
2023-03-31T06:15:29.315Z,87.35
2023-03-31T06:16:29.370Z,87.55
2023-03-31T06:17:29.301Z,87.35
2023-03-31T06:18:29.323Z,87.45
2023-03-31T06:19:29.289Z,87.45
2023-03-31T06:20:29.275Z,87.38
2023-03-31T06:21:29.249Z,88.10
2023-03-31T06:22:29.237Z,88.06
2023-03-31T06:23:29.255Z,88.26
2023-03-31T06:24:29.247Z,88.26
2023-03-31T06:25:34.561Z,88.98
2023-03-31T06:26:30.200Z,88.17
2023-03-31T06:27:29.184Z,88.78
2023-03-31T06:28:29.191Z,88.17
2023-03-31T06:29:29.162Z,88.98
2023-03-31T06:30:29.173Z,89.09
2023-03-31T06:31:29.156Z,89.18
2023-03-31T06:32:29.195Z,88.78
2023-03-31T06:33:29.156Z,89.09
2023-03-31T06:34:29.108Z,88.26
2023-03-31T06:35:29.105Z,89.15
2023-03-31T06:36:29.100Z,88.43
2023-03-31T06:37:29.127Z,88.53
2023-03-31T06:38:29.085Z,88.74
2023-03-31T06:39:29.074Z,88.84
2023-03-31T06:40:29.045Z,88.17
2023-03-31T06:41:29.023Z,87.82
2023-03-31T06:42:29.038Z,88.12
2023-03-31T06:43:29.036Z,88.12
2023-03-31T06:44:29.061Z,87.82
2023-03-31T06:45:29.025Z,87.61
2023-03-31T06:46:29.057Z,88.12
2023-03-31T06:47:28.974Z,87.82
2023-03-31T06:48:28.990Z,87.51
2023-03-31T06:49:29.132Z,88.02
2023-03-31T06:50:28.947Z,87.71
2023-03-31T06:51:30.621Z,88.12
2023-03-31T06:52:28.924Z,88.12
2023-03-31T06:53:28.905Z,87.77
2023-03-31T06:54:28.896Z,87.47
2023-03-31T06:55:28.884Z,88.23
2023-03-31T06:56:28.885Z,87.82
2023-03-31T06:57:28.958Z,87.82
2023-03-31T06:58:31.214Z,88.94
2023-03-31T06:59:28.834Z,88.43
2023-03-31T07:00:28.834Z,88.23
2023-03-31T07:01:28.880Z,88.29
2023-03-31T07:02:28.972Z,89.04
2023-03-31T07:03:28.908Z,89.04
2023-03-31T07:04:28.785Z,89.15
2023-03-31T07:05:28.786Z,88.29
2023-03-31T07:06:28.771Z,89.00
2023-03-31T07:07:28.788Z,88.79
2023-03-31T07:08:28.750Z,88.29
2023-03-31T07:09:28.718Z,88.79
2023-03-31T07:10:28.722Z,88.18
2023-03-31T07:11:28.698Z,88.24
2023-03-31T07:12:28.701Z,88.85
2023-03-31T07:13:28.730Z,87.84
2023-03-31T07:14:28.673Z,88.14
2023-03-31T07:15:28.657Z,87.84
2023-03-31T07:16:29.638Z,87.79
2023-03-31T07:17:28.666Z,87.49
2023-03-31T07:18:28.637Z,87.35
2023-03-31T07:19:28.649Z,87.24
2023-03-31T07:20:28.607Z,87.14
2023-03-31T07:21:28.591Z,86.73
2023-03-31T07:22:28.599Z,86.83
2023-03-31T07:23:28.568Z,86.02
2023-03-31T07:24:28.556Z,86.33
2023-03-31T07:25:28.556Z,85.57
2023-03-31T07:26:28.541Z,85.47
2023-03-31T07:27:28.551Z,85.77
2023-03-31T07:28:28.525Z,85.27
2023-03-31T07:29:28.505Z,85.53
2023-03-31T07:30:28.514Z,85.13
2023-03-31T07:31:28.513Z,84.75
2023-03-31T07:32:29.242Z,84.86
2023-03-31T07:33:28.477Z,84.51
2023-03-31T07:34:28.489Z,85.53
2023-03-31T07:35:28.448Z,85.33
2023-03-31T07:36:28.470Z,83.70
2023-03-31T07:37:28.427Z,83.56
2023-03-31T07:38:28.417Z,83.35
2023-03-31T07:39:28.412Z,83.45
2023-03-31T07:40:28.394Z,84.00
2023-03-31T07:41:28.379Z,84.78
2023-03-31T07:42:28.354Z,83.31
2023-03-31T07:43:28.388Z,83.31
2023-03-31T07:44:28.369Z,83.42
2023-03-31T07:45:28.328Z,83.35
2023-03-31T07:46:28.388Z,83.65
2023-03-31T07:47:30.216Z,82.94
2023-03-31T07:48:28.296Z,83.86
2023-03-31T07:49:28.338Z,83.04
2023-03-31T07:50:28.303Z,83.56
2023-03-31T07:51:28.302Z,83.56
2023-03-31T07:52:28.253Z,83.76
2023-03-31T07:53:28.241Z,83.72
2023-03-31T07:54:28.235Z,83.72
2023-03-31T07:55:28.227Z,83.62
2023-03-31T07:56:28.225Z,83.62
2023-03-31T07:57:28.258Z,84.33
2023-03-31T07:58:28.200Z,83.51
2023-03-31T07:59:28.196Z,82.87
2023-03-31T08:00:28.215Z,82.87
2023-03-31T08:01:28.165Z,82.87
2023-03-31T08:02:28.316Z,82.35
2023-03-31T08:03:28.131Z,82.97
2023-03-31T08:04:28.226Z,83.03
2023-03-31T08:05:28.142Z,83.74
2023-03-31T08:06:28.126Z,82.73
2023-03-31T08:07:28.097Z,82.32
2023-03-31T08:08:28.070Z,82.73
2023-03-31T08:09:28.065Z,82.52
2023-03-31T08:10:28.059Z,82.73
2023-03-31T08:11:28.053Z,82.73
2023-03-31T08:12:28.090Z,82.73
2023-03-31T08:13:28.043Z,81.87
2023-03-31T08:14:38.272Z,81.98
2023-03-31T08:15:29.003Z,82.32
2023-03-31T08:16:28.084Z,82.93
2023-03-31T08:17:28.024Z,82.12
2023-03-31T08:18:28.006Z,82.12
2023-03-31T08:19:27.966Z,82.93
2023-03-31T08:20:27.938Z,82.73
2023-03-31T08:21:27.932Z,82.82
2023-03-31T08:22:27.936Z,83.03
2023-03-31T08:23:27.913Z,82.52
2023-03-31T08:24:27.943Z,82.62
2023-03-31T08:25:27.883Z,82.82
2023-03-31T08:26:27.921Z,82.21
2023-03-31T08:27:27.869Z,82.42
2023-03-31T08:28:27.860Z,82.52
2023-03-31T08:29:27.836Z,81.77
2023-03-31T08:30:27.856Z,81.91
2023-03-31T08:31:27.961Z,81.67
2023-03-31T08:32:27.844Z,81.51
2023-03-31T08:33:27.802Z,81.87
2023-03-31T08:34:27.790Z,82.18
2023-03-31T08:35:27.778Z,81.81
2023-03-31T08:36:27.812Z,82.18
2023-03-31T08:37:27.818Z,81.87
2023-03-31T08:38:27.781Z,81.77
2023-03-31T08:39:27.748Z,80.96
2023-03-31T08:40:27.731Z,80.24
2023-03-31T08:41:27.719Z,80.45
2023-03-31T08:42:27.720Z,81.06
2023-03-31T08:43:27.716Z,81.06
2023-03-31T08:44:27.699Z,81.06
2023-03-31T08:45:27.712Z,80.72
2023-03-31T08:46:27.749Z,80.51
2023-03-31T08:47:27.712Z,80.35
2023-03-31T08:48:27.684Z,81.02
2023-03-31T08:49:27.643Z,80.96
2023-03-31T08:50:27.647Z,80.62
2023-03-31T08:51:27.605Z,81.12
2023-03-31T08:52:27.601Z,81.23
2023-03-31T08:53:27.596Z,80.72
2023-03-31T08:54:27.608Z,80.82
2023-03-31T08:55:27.585Z,80.72
2023-03-31T08:56:27.570Z,80.78
2023-03-31T08:57:27.637Z,80.07
2023-03-31T08:58:27.571Z,80.33
2023-03-31T08:59:27.554Z,80.37
2023-03-31T09:00:27.528Z,79.83
2023-03-31T09:01:27.502Z,79.72
2023-03-31T09:02:27.748Z,79.63
2023-03-31T09:03:27.568Z,79.32
2023-03-31T09:04:27.497Z,79.63
2023-03-31T09:05:27.482Z,79.18
2023-03-31T09:06:27.460Z,77.83
2023-03-31T09:07:27.434Z,77.42
2023-03-31T09:08:27.426Z,78.09
2023-03-31T09:09:27.421Z,77.99
2023-03-31T09:10:27.557Z,76.94
2023-03-31T09:11:27.398Z,76.20
2023-03-31T09:12:27.393Z,75.32
2023-03-31T09:13:27.369Z,74.98
2023-03-31T09:14:27.363Z,73.66
2023-03-31T09:15:27.374Z,74.07
2023-03-31T09:16:27.392Z,74.74
2023-03-31T09:17:27.353Z,74.33
2023-03-31T09:18:27.368Z,73.73
2023-03-31T09:19:27.311Z,74.24
2023-03-31T09:20:27.311Z,73.73
2023-03-31T09:21:27.311Z,74.37
2023-03-31T09:22:27.311Z,73.93
2023-03-31T09:23:27.278Z,73.73
2023-03-31T09:24:27.267Z,73.86
2023-03-31T09:25:27.314Z,73.66
2023-03-31T09:26:27.248Z,74.41
2023-03-31T09:27:27.231Z,74.24
2023-03-31T09:28:27.232Z,75.25
2023-03-31T09:29:27.242Z,75.35
2023-03-31T09:30:27.212Z,75.39
2023-03-31T09:31:27.254Z,75.09
2023-03-31T09:32:27.187Z,75.22
2023-03-31T09:33:27.154Z,77.05
2023-03-31T09:34:27.155Z,76.34
2023-03-31T09:35:27.194Z,77.05
2023-03-31T09:36:27.151Z,76.61
2023-03-31T09:37:27.136Z,76.34
2023-03-31T09:38:27.108Z,76.14
2023-03-31T09:39:27.112Z,77.05
2023-03-31T09:40:27.157Z,76.24
2023-03-31T09:41:27.074Z,76.54
2023-03-31T09:42:27.095Z,76.95
2023-03-31T09:43:27.083Z,76.64
2023-03-31T09:44:27.058Z,76.14
2023-03-31T09:45:27.027Z,76.85
2023-03-31T09:46:27.094Z,76.88
2023-03-31T09:47:27.014Z,76.88
2023-03-31T09:48:26.991Z,77.59
2023-03-31T09:49:26.996Z,77.33
2023-03-31T09:50:27.002Z,77.43
2023-03-31T09:51:26.981Z,78.34
2023-03-31T09:52:27.135Z,77.73
2023-03-31T09:53:26.964Z,77.53
2023-03-31T09:54:26.943Z,77.26
2023-03-31T09:55:38.921Z,77.94
2023-03-31T09:56:27.901Z,77.36
2023-03-31T09:57:27.084Z,77.47
2023-03-31T09:58:26.914Z,77.06
2023-03-31T09:59:26.861Z,77.06
2023-03-31T10:00:26.853Z,77.06
2023-03-31T10:01:26.903Z,75.33
2023-03-31T10:02:26.991Z,75.84
2023-03-31T10:03:26.817Z,75.94
2023-03-31T10:04:26.915Z,75.02
2023-03-31T10:05:26.800Z,75.77
2023-03-31T10:06:26.805Z,75.94
2023-03-31T10:07:26.823Z,75.84
2023-03-31T10:08:26.775Z,75.94
2023-03-31T10:09:26.782Z,75.53
2023-03-31T10:10:26.741Z,75.46
2023-03-31T10:11:26.754Z,74.85
2023-03-31T10:12:26.721Z,76.04
2023-03-31T10:13:26.715Z,76.25
2023-03-31T10:14:26.711Z,75.23
2023-03-31T10:15:26.701Z,75.60
2023-03-31T10:16:26.858Z,74.58
2023-03-31T10:17:26.712Z,74.68
2023-03-31T10:18:26.692Z,74.55
2023-03-31T10:19:26.680Z,73.70
2023-03-31T10:20:26.645Z,73.80
2023-03-31T10:21:26.618Z,74.21
2023-03-31T10:22:26.620Z,74.14
2023-03-31T10:23:27.131Z,74.14
2023-03-31T10:24:26.598Z,73.83
2023-03-31T10:25:26.578Z,73.87
2023-03-31T10:26:26.567Z,73.77
2023-03-31T10:27:26.584Z,74.34
2023-03-31T10:28:26.537Z,75.40
2023-03-31T10:29:26.544Z,75.36
2023-03-31T10:30:26.549Z,74.44
2023-03-31T10:31:26.565Z,74.10
2023-03-31T10:32:26.556Z,73.87
2023-03-31T10:33:26.494Z,73.57
2023-03-31T10:34:26.480Z,72.92
2023-03-31T10:35:26.464Z,72.92
2023-03-31T10:36:26.462Z,73.83
2023-03-31T10:37:26.550Z,73.80
2023-03-31T10:38:26.450Z,73.02
2023-03-31T10:39:26.417Z,72.78
2023-03-31T10:40:26.410Z,72.58
2023-03-31T10:41:26.460Z,72.58
2023-03-31T10:42:26.444Z,72.89
2023-03-31T10:43:26.403Z,72.99
2023-03-31T10:44:26.351Z,73.60
2023-03-31T10:45:35.684Z,75.22
2023-03-31T10:46:27.415Z,73.70
2023-03-31T10:47:26.343Z,76.98
2023-03-31T10:48:26.374Z,77.12
2023-03-31T10:49:26.335Z,77.12
2023-03-31T10:50:26.289Z,77.12
2023-03-31T10:51:26.322Z,77.22
2023-03-31T10:52:26.261Z,77.62
2023-03-31T10:53:26.253Z,78.84
2023-03-31T10:54:26.250Z,77.48
2023-03-31T10:55:26.276Z,76.67
2023-03-31T10:56:26.247Z,77.28
2023-03-31T10:57:26.262Z,77.79
2023-03-31T10:58:26.221Z,75.52
2023-03-31T10:59:26.206Z,75.01
2023-03-31T11:00:26.184Z,75.01
2023-03-31T11:01:26.185Z,74.57
2023-03-31T11:02:26.244Z,74.33
2023-03-31T11:03:26.235Z,73.32
2023-03-31T11:04:26.140Z,71.09
2023-03-31T11:05:26.123Z,70.15
2023-03-31T11:06:26.108Z,70.15
2023-03-31T11:07:26.130Z,70.05
2023-03-31T11:08:26.104Z,70.02
2023-03-31T11:09:26.076Z,70.62
2023-03-31T11:10:26.101Z,70.96
2023-03-31T11:11:26.062Z,69.61
2023-03-31T11:12:26.060Z,69.81
2023-03-31T11:13:26.118Z,69.71
2023-03-31T11:14:26.078Z,69.92
2023-03-31T11:15:26.042Z,69.21
2023-03-31T11:16:26.109Z,69.24
2023-03-31T11:17:26.085Z,69.85
2023-03-31T11:18:26.009Z,69.34
2023-03-31T11:19:26.012Z,70.15
2023-03-31T11:20:25.956Z,69.74
2023-03-31T11:21:25.947Z,69.34
2023-03-31T11:22:25.958Z,69.07
2023-03-31T11:23:25.931Z,69.14
2023-03-31T11:24:25.917Z,69.74
2023-03-31T11:25:25.913Z,70.15
2023-03-31T11:26:25.894Z,69.74
2023-03-31T11:27:25.901Z,69.34
2023-03-31T11:28:25.878Z,69.65
2023-03-31T11:29:25.861Z,70.15
2023-03-31T11:30:25.863Z,70.45
2023-03-31T11:31:25.907Z,69.85
2023-03-31T11:32:25.871Z,69.74
2023-03-31T11:33:25.807Z,70.15
2023-03-31T11:34:25.828Z,70.05
2023-03-31T11:35:25.811Z,70.36
2023-03-31T11:36:25.785Z,70.96
2023-03-31T11:37:25.798Z,70.65
2023-03-31T11:38:25.756Z,71.40
2023-03-31T11:39:25.770Z,71.70
2023-03-31T11:40:25.740Z,71.20
2023-03-31T11:41:25.783Z,71.91
2023-03-31T11:42:25.718Z,72.41
2023-03-31T11:43:25.720Z,72.41
2023-03-31T11:44:25.700Z,71.91
2023-03-31T11:45:25.686Z,72.17
2023-03-31T11:46:25.726Z,70.96
2023-03-31T11:47:25.698Z,69.98
2023-03-31T11:48:25.640Z,70.69
2023-03-31T11:49:25.657Z,70.79
2023-03-31T11:50:25.664Z,70.21
2023-03-31T11:51:25.617Z,69.98
2023-03-31T11:52:25.623Z,70.12
2023-03-31T11:53:25.627Z,70.12
2023-03-31T11:54:25.602Z,71.03
2023-03-31T11:55:25.571Z,71.57
2023-03-31T11:56:25.559Z,71.77
2023-03-31T11:57:25.599Z,72.38
2023-03-31T11:58:25.544Z,72.78
2023-03-31T11:59:25.549Z,73.53
2023-03-31T12:00:25.564Z,75.19
2023-03-31T12:01:25.510Z,76.71
2023-03-31T12:02:25.587Z,76.88
2023-03-31T12:03:25.601Z,79.42
2023-03-31T12:04:25.481Z,80.51
2023-03-31T12:05:25.491Z,80.92
2023-03-31T12:06:25.496Z,82.48
2023-03-31T12:07:25.445Z,82.32
2023-03-31T12:08:25.436Z,82.70
2023-03-31T12:09:25.441Z,83.72
2023-03-31T12:10:25.414Z,85.25
2023-03-31T12:11:25.403Z,86.00
2023-03-31T12:12:25.399Z,85.60
2023-03-31T12:13:25.373Z,85.94
2023-03-31T12:14:25.372Z,85.94
2023-03-31T12:15:25.394Z,86.04
2023-03-31T12:16:25.405Z,85.84
2023-03-31T12:17:25.371Z,87.00
2023-03-31T12:18:25.323Z,87.71
2023-03-31T12:19:25.317Z,86.96
2023-03-31T12:20:25.322Z,86.80
2023-03-31T12:21:25.319Z,86.65
2023-03-31T12:22:25.307Z,87.67
2023-03-31T12:23:25.292Z,86.80
2023-03-31T12:24:25.255Z,86.55
2023-03-31T12:25:25.245Z,86.24
2023-03-31T12:26:25.229Z,86.76
2023-03-31T12:27:25.251Z,87.47
2023-03-31T12:28:25.294Z,86.76
2023-03-31T12:29:25.219Z,87.06
2023-03-31T12:30:25.183Z,87.02
2023-03-31T12:31:25.203Z,87.32
2023-03-31T12:32:25.203Z,87.02
2023-03-31T12:33:25.177Z,87.08
2023-03-31T12:34:25.162Z,86.98
2023-03-31T12:35:25.215Z,86.88
2023-03-31T12:36:25.170Z,85.66
2023-03-31T12:37:25.131Z,86.77
2023-03-31T12:38:25.116Z,87.65
2023-03-31T12:39:25.094Z,86.02
2023-03-31T12:40:25.085Z,86.02
2023-03-31T12:41:25.063Z,86.59
2023-03-31T12:42:25.250Z,85.41
2023-03-31T12:43:25.046Z,84.76
2023-03-31T12:44:25.043Z,84.76
2023-03-31T12:45:25.024Z,84.76
2023-03-31T12:46:25.118Z,84.35
2023-03-31T12:47:25.113Z,84.56
2023-03-31T12:48:25.019Z,84.35
2023-03-31T12:49:24.981Z,83.84
2023-03-31T12:50:24.962Z,83.50
2023-03-31T12:51:24.957Z,84.21
2023-03-31T12:52:24.969Z,82.79